Time;durP1;ratioP1;P1;durP2;ratioP2;P2;SDS_P1;SDS_P2;PMS_P1;PMS_P2;Temp;Humidity;BMP_temperature;BMP_pressure;BME280_temperature;BME280_humidity;BME280_pressure;Samples;Min_cycle;Max_cycle;Signal;HPM_P1;HPM_P2
2022/11/01 00:00:12;;;;;;;0.83;0.70;;;;;;;15.09;72.07;99790.31;5111932;28;20658;-58
2022/11/01 00:02:38;;;;;;;0.80;0.80;;;;;;;15.14;71.60;99787.38;5111828;28;20274;-59
2022/11/01 00:05:06;;;;;;;0.90;0.77;;;;;;;15.19;71.35;99774.97;5111735;27;20666;-65
2022/11/01 00:07:33;;;;;;;0.80;0.80;;;;;;;15.24;71.10;99779.72;5111826;28;20194;-58
2022/11/01 00:10:00;;;;;;;0.50;0.50;;;;;;;15.24;70.69;99782.31;5111699;28;20237;-65
2022/11/01 00:12:27;;;;;;;0.60;0.60;;;;;;;15.25;70.88;99773.66;5111738;28;20189;-58
2022/11/01 00:14:55;;;;;;;0.83;0.70;;;;;;;15.27;70.93;99776.91;5111681;28;20226;-63
2022/11/01 00:17:22;;;;;;;0.83;0.83;;;;;;;15.30;70.38;99779.22;5111665;28;20202;-65
2022/11/01 00:19:48;;;;;;;0.70;0.70;;;;;;;15.25;70.84;99777.03;5111503;28;20235;-58
2022/11/01 00:22:15;;;;;;;0.43;0.43;;;;;;;15.19;70.61;99774.16;5111449;27;20200;-65
2022/11/01 00:24:42;;;;;;;0.47;0.47;;;;;;;15.16;70.79;99773.44;5111470;28;20772;-58
2022/11/01 00:27:09;;;;;;;0.70;0.70;;;;;;;15.15;70.51;99776.97;5111411;28;20654;-65
2022/11/01 00:29:35;;;;;;;1.40;1.00;;;;;;;15.08;70.61;99786.13;5111123;28;20237;-65
2022/11/01 00:32:04;;;;;;;0.90;0.90;;;;;;;15.15;71.10;99778.72;5111369;28;20205;-65
2022/11/01 00:34:31;;;;;;;0.47;0.47;;;;;;;15.16;70.83;99781.19;5111475;28;20217;-58
2022/11/01 00:36:57;;;;;;;0.43;0.43;;;;;;;15.10;71.52;99780.88;5110722;28;20204;-64
2022/11/01 00:39:24;;;;;;;0.73;0.73;;;;;;;15.13;71.66;99786.56;5111075;28;20217;-65
2022/11/01 00:41:51;;;;;;;0.70;0.70;;;;;;;15.11;71.46;99778.16;5111003;28;20199;-58
2022/11/01 00:44:18;;;;;;;1.07;0.97;;;;;;;15.03;71.61;99784.84;5111150;28;20221;-58
2022/11/01 00:46:44;;;;;;;3.43;1.10;;;;;;;14.82;72.59;99782.22;5111217;28;20666;-59
2022/11/01 00:49:12;;;;;;;0.87;0.60;;;;;;;14.76;72.92;99777.56;5110845;28;20225;-65
2022/11/01 00:51:39;;;;;;;1.17;0.87;;;;;;;14.75;72.58;99775.91;5110920;28;20201;-65
2022/11/01 00:54:06;;;;;;;0.50;0.50;;;;;;;14.56;73.49;99782.50;5110971;27;20225;-65
2022/11/01 00:56:33;;;;;;;0.77;0.73;;;;;;;14.57;73.87;99784.13;5110853;28;20204;-65
2022/11/01 00:59:00;;;;;;;0.73;0.73;;;;;;;14.54;74.04;99776.66;5110642;28;20217;-58
2022/11/01 01:01:27;;;;;;;0.70;0.70;;;;;;;14.41;74.13;99776.75;5110809;28;20224;-58
2022/11/01 01:03:53;;;;;;;0.73;0.67;;;;;;;14.36;74.19;99776.28;5110692;28;20587;-65
2022/11/01 01:06:21;;;;;;;0.90;0.70;;;;;;;14.23;74.59;99773.84;5110701;28;20330;-64
2022/11/01 01:08:48;;;;;;;0.67;0.67;;;;;;;14.29;74.86;99779.47;5110500;28;20201;-65
2022/11/01 01:11:15;;;;;;;1.13;1.00;;;;;;;14.40;74.61;99771.75;5110596;28;20297;-58
2022/11/01 01:13:42;;;;;;;0.80;0.70;;;;;;;14.41;74.36;99768.22;5110291;28;20208;-64
2022/11/01 01:16:11;;;;;;;0.60;0.60;;;;;;;14.39;74.49;99775.22;5110335;28;20232;-64
2022/11/01 01:18:38;;;;;;;0.60;0.60;;;;;;;14.32;74.29;99779.22;5110374;28;20208;-65
2022/11/01 01:21:06;;;;;;;0.43;0.43;;;;;;;14.41;74.39;99775.94;5110384;28;20243;-58
2022/11/01 01:23:34;;;;;;;0.60;0.60;;;;;;;14.27;75.11;99782.94;5110464;28;20676;-64
2022/11/01 01:26:05;;;;;;;0.80;0.80;;;;;;;14.24;75.34;99778.03;5110709;28;20231;-58
2022/11/01 01:28:32;;;;;;;0.57;0.57;;;;;;;14.30;75.40;99781.09;5110573;28;20673;-65
2022/11/01 01:30:59;;;;;;;3.03;1.00;;;;;;;14.33;75.21;99775.72;5110281;28;20692;-58
2022/11/01 01:33:26;;;;;;;0.63;0.50;;;;;;;14.32;75.44;99786.94;5110363;28;20586;-58
2022/11/01 01:35:52;;;;;;;0.60;0.60;;;;;;;14.29;75.51;99782.84;5110260;28;20224;-65
2022/11/01 01:38:19;;;;;;;0.50;0.50;;;;;;;14.41;75.49;99779.31;5109985;28;20201;-58
2022/11/01 01:40:47;;;;;;;2.13;1.43;;;;;;;14.41;75.31;99781.91;5110161;28;20221;-58
2022/11/01 01:43:14;;;;;;;2.43;0.93;;;;;;;14.39;75.62;99780.38;5110334;28;20561;-58
2022/11/01 01:45:42;;;;;;;0.60;0.60;;;;;;;14.34;75.53;99782.47;5110167;28;20224;-65
2022/11/01 01:48:17;;;;;;;1.27;1.10;;;;;;;14.24;75.77;99780.63;5110053;28;20755;-58
2022/11/01 01:50:48;;;;;;;1.73;1.03;;;;;;;14.24;75.65;99778.03;5112946;28;20238;-58
2022/11/01 01:53:20;;;;;;;1.17;0.83;;;;;;;14.15;75.42;99777.94;5114413;28;20212;-58
2022/11/01 01:55:53;;;;;;;0.70;0.70;;;;;;;14.07;75.46;99787.97;5114532;28;20682;-64
2022/11/01 01:58:23;;;;;;;0.73;0.73;;;;;;;13.94;75.98;99782.94;5114328;28;20561;-63
2022/11/01 02:00:52;;;;;;;1.37;1.07;;;;;;;13.87;76.89;99790.28;5114214;28;20235;-65
2022/11/01 02:03:20;;;;;;;1.20;0.83;;;;;;;13.82;76.84;99795.78;5114319;28;20207;-58
2022/11/01 02:05:53;;;;;;;1.80;1.00;;;;;;;13.74;77.04;99789.56;5114255;28;20230;-58
2022/11/01 02:08:26;;;;;;;1.20;1.10;;;;;;;13.63;77.42;99797.25;5113626;28;20203;-65
2022/11/01 02:10:57;;;;;;;2.63;1.30;;;;;;;13.55;77.91;99790.09;5113650;28;20244;-58
2022/11/01 02:13:24;;;;;;;2.07;1.40;;;;;;;13.38;79.00;99793.06;5113752;27;20412;-65
2022/11/01 02:16:05;;;;;;;2.37;1.47;;;;;;;13.35;78.97;99794.13;5113573;28;20729;-58
2022/11/01 02:18:41;;;;;;;2.13;1.30;;;;;;;13.29;79.46;99800.53;5113830;28;20194;-65
2022/11/01 02:21:29;;;;;;;0.93;0.93;;;;;;;13.34;79.67;99803.56;5113559;28;20207;-58
2022/11/01 02:24:26;;;;;;;2.67;1.80;;;;;;;13.36;79.44;99801.72;5113719;28;20227;-57
2022/11/01 02:27:11;;;;;;;2.77;1.40;;;;;;;13.38;79.56;99805.91;5113586;28;20194;-58
2022/11/01 02:30:05;;;;;;;2.57;1.50;;;;;;;13.39;79.18;99799.88;5113192;28;20304;-58
2022/11/01 02:32:54;;;;;;;1.43;1.10;;;;;;;13.30;79.60;99801.34;5113378;27;20197;-65
2022/11/01 02:35:29;;;;;;;1.27;1.17;;;;;;;13.24;79.75;99797.44;5113270;28;20218;-65
2022/11/01 02:38:02;;;;;;;3.03;1.50;;;;;;;13.23;79.92;99798.34;5113544;28;20202;-65
2022/11/01 02:40:36;;;;;;;1.70;1.23;;;;;;;13.18;80.39;99802.19;5113209;28;20737;-65
2022/11/01 02:43:08;;;;;;;1.50;1.40;;;;;;;13.14;80.30;99802.41;5113694;28;20218;-65
2022/11/01 02:45:39;;;;;;;3.07;2.10;;;;;;;13.06;81.28;99797.03;5113147;28;20223;-65
2022/11/01 02:48:08;;;;;;;1.83;1.53;;;;;;;13.05;81.54;99802.25;5113203;28;20203;-65
2022/11/01 02:50:38;;;;;;;3.07;1.67;;;;;;;13.04;81.22;99800.63;5113053;28;20313;-65
2022/11/01 02:53:06;;;;;;;2.40;1.60;;;;;;;12.99;81.80;99797.56;5113169;28;20628;-58
2022/11/01 02:55:34;;;;;;;2.37;1.53;;;;;;;12.94;82.04;99794.47;5112955;27;20302;-58
2022/11/01 02:58:04;;;;;;;2.47;1.70;;;;;;;12.98;82.17;99790.78;5112919;28;20198;-65
2022/11/01 03:00:33;;;;;;;2.43;1.90;;;;;;;12.98;81.82;99795.91;5112499;27;20226;-65
2022/11/01 03:03:11;;;;;;;1.80;1.40;;;;;;;12.94;81.33;99802.19;5112918;28;20206;-64
2022/11/01 03:05:49;;;;;;;2.03;1.67;;;;;;;12.93;82.00;99803.13;5112712;28;20236;-58
2022/11/01 03:08:19;;;;;;;2.23;1.60;;;;;;;12.84;82.27;99796.88;5112747;28;20204;-58
2022/11/01 03:10:52;;;;;;;1.67;1.33;;;;;;;12.75;82.76;99795.78;5112593;28;20236;-58
2022/11/01 03:13:34;;;;;;;2.67;1.37;;;;;;;12.53;83.46;99796.44;5112667;28;20205;-65
2022/11/01 03:16:20;;;;;;;1.33;1.23;;;;;;;12.21;85.37;99801.22;5112668;28;20197;-64
2022/11/01 03:18:59;;;;;;;1.00;0.87;;;;;;;12.10;86.68;99801.94;5112648;28;20688;-65
2022/11/01 03:21:28;;;;;;;1.17;0.87;;;;;;;12.19;87.10;99810.75;5112527;28;20200;-58
2022/11/01 03:24:02;;;;;;;0.90;0.80;;;;;;;12.33;85.91;99805.50;5112413;27;20282;-58
2022/11/01 03:26:33;;;;;;;1.80;0.83;;;;;;;12.46;85.33;99803.75;5112523;28;20595;-62
2022/11/01 03:29:05;;;;;;;0.87;0.57;;;;;;;12.52;84.71;99812.78;5112431;28;20224;-65
2022/11/01 03:31:36;;;;;;;1.30;1.20;;;;;;;12.55;84.38;99814.31;5112346;28;20232;-64
2022/11/01 03:34:07;;;;;;;1.20;0.73;;;;;;;12.58;84.22;99814.91;5112361;28;20252;-64
2022/11/01 03:36:39;;;;;;;1.57;1.13;;;;;;;12.54;83.91;99812.69;5111958;28;20194;-58
2022/11/01 03:39:12;;;;;;;1.07;0.90;;;;;;;12.54;83.78;99816.06;5112492;28;20225;-60
2022/11/01 03:41:44;;;;;;;0.93;0.80;;;;;;;12.57;83.99;99807.34;5111993;28;20199;-65
2022/11/01 03:44:12;;;;;;;2.43;1.10;;;;;;;12.55;83.87;99814.31;5112380;28;20612;-64
2022/11/01 03:46:40;;;;;;;1.03;0.80;;;;;;;12.57;84.08;99812.47;5112204;28;20207;-65
2022/11/01 03:49:08;;;;;;;1.70;1.33;;;;;;;12.57;83.95;99812.47;5112283;28;20232;-65
2022/11/01 03:51:35;;;;;;;0.70;0.70;;;;;;;12.58;83.88;99816.66;5111984;28;20229;-58
2022/11/01 03:54:05;;;;;;;0.87;0.80;;;;;;;12.60;83.97;99814.81;5112039;28;20240;-58
2022/11/01 03:56:32;;;;;;;1.57;0.80;;;;;;;12.61;83.45;99813.88;5111994;28;20220;-58
2022/11/01 03:58:58;;;;;;;1.77;1.07;;;;;;;12.59;83.56;99816.53;5111957;28;20216;-65
2022/11/01 04:01:25;;;;;;;0.73;0.73;;;;;;;12.61;83.71;99813.88;5112034;28;20209;-65
2022/11/01 04:03:52;;;;;;;1.20;0.93;;;;;;;12.57;83.63;99818.41;5111402;28;20201;-58
2022/11/01 04:06:20;;;;;;;1.13;0.93;;;;;;;12.58;84.10;99819.22;5111650;28;20202;-65
2022/11/01 04:08:47;;;;;;;0.40;0.40;;;;;;;12.57;83.84;99818.41;5111618;28;20194;-58
2022/11/01 04:11:13;;;;;;;1.07;0.70;;;;;;;12.59;83.74;99813.16;5111472;28;20221;-58
2022/11/01 04:13:42;;;;;;;0.87;0.67;;;;;;;12.56;83.97;99815.94;5110472;28;20212;-59
2022/11/01 04:21:40;;;;;;;1.37;0.70;;;;;;;12.33;84.61;99814.94;5111357;28;20208;-58
2022/11/01 04:24:07;;;;;;;1.00;0.73;;;;;;;12.32;84.26;99816.69;5111292;28;20770;-64
2022/11/01 04:26:35;;;;;;;0.70;0.70;;;;;;;12.28;84.14;99814.44;5111217;28;20198;-64
2022/11/01 04:29:02;;;;;;;0.90;0.90;;;;;;;12.30;84.12;99810.84;5111215;28;20221;-57
2022/11/01 04:31:31;;;;;;;1.00;0.83;;;;;;;12.32;84.07;99819.25;5111096;28;20224;-65
2022/11/01 04:33:59;;;;;;;1.77;0.70;;;;;;;12.30;83.80;99821.09;5111252;28;20213;-58
2022/11/01 04:36:26;;;;;;;0.97;0.90;;;;;;;12.32;83.69;99816.69;5110942;28;20201;-65
2022/11/01 04:38:56;;;;;;;1.50;1.00;;;;;;;12.30;83.62;99821.09;5111064;28;20212;-64
2022/11/01 04:41:24;;;;;;;0.57;0.47;;;;;;;12.24;83.76;99826.63;5111123;28;20620;-64
2022/11/01 04:43:53;;;;;;;1.30;0.97;;;;;;;12.20;84.28;99825.22;5110622;28;20649;-65
2022/11/01 04:46:20;;;;;;;1.40;1.20;;;;;;;12.23;83.73;99819.88;5111080;28;20208;-58
2022/11/01 04:48:47;;;;;;;1.43;1.03;;;;;;;12.25;83.81;99823.16;5110560;28;20742;-57
2022/11/01 04:51:14;;;;;;;1.43;0.93;;;;;;;12.23;83.62;99825.00;5110707;28;20251;-64
2022/11/01 04:53:41;;;;;;;1.67;1.30;;;;;;;12.14;83.65;99825.63;5110577;28;20197;-65
2022/11/01 04:56:12;;;;;;;0.93;0.83;;;;;;;11.99;84.78;99818.03;5110611;28;20201;-57
2022/11/01 04:58:39;;;;;;;2.23;1.50;;;;;;;11.89;84.69;99824.69;5110434;28;20200;-58
2022/11/01 05:01:06;;;;;;;2.10;0.80;;;;;;;11.70;85.47;99826.78;5111028;28;20205;-65
2022/11/01 05:03:34;;;;;;;1.37;1.10;;;;;;;11.77;86.19;99838.25;5110378;28;20197;-58
2022/11/01 05:06:01;;;;;;;1.23;0.60;;;;;;;11.81;85.93;99837.16;5110634;28;20228;-64
2022/11/01 05:08:29;;;;;;;0.87;0.83;;;;;;;11.87;85.87;99835.94;5110915;28;20196;-64
2022/11/01 05:10:56;;;;;;;1.67;0.80;;;;;;;11.99;85.21;99833.41;5110355;28;20236;-65
2022/11/01 05:13:25;;;;;;;1.23;1.13;;;;;;;11.96;85.51;99828.50;5110393;28;20193;-57
2022/11/01 05:15:51;;;;;;;1.03;0.80;;;;;;;11.96;85.21;99838.75;5110224;28;20555;-58
2022/11/01 05:18:18;;;;;;;0.73;0.57;;;;;;;12.00;85.22;99834.22;5110085;28;20284;-60
2022/11/01 05:20:45;;;;;;;1.03;0.80;;;;;;;11.97;85.33;99837.00;5110117;28;20229;-58
2022/11/01 05:23:12;;;;;;;2.07;1.30;;;;;;;11.99;84.90;99842.84;5110125;28;20205;-58
2022/11/01 05:25:39;;;;;;;0.83;0.83;;;;;;;11.91;85.29;99843.34;5110194;28;20224;-58
2022/11/01 05:28:07;;;;;;;1.17;0.97;;;;;;;11.98;85.51;99843.75;5109923;28;20236;-65
2022/11/01 05:30:36;;;;;;;0.77;0.77;;;;;;;12.04;85.14;99845.09;5109928;28;20234;-58
2022/11/01 05:33:05;;;;;;;0.70;0.70;;;;;;;12.04;85.25;99845.91;5109962;28;20204;-58
2022/11/01 05:35:34;;;;;;;1.40;1.30;;;;;;;12.07;85.36;99845.72;5109985;28;20703;-64
2022/11/01 05:38:02;;;;;;;0.70;0.57;;;;;;;12.11;85.24;99846.34;5109897;28;20239;-65
2022/11/01 05:40:29;;;;;;;0.80;0.80;;;;;;;12.17;85.34;99848.50;5110265;28;20736;-64
2022/11/01 05:42:57;;;;;;;1.03;0.57;;;;;;;12.18;85.31;99853.50;5109956;28;20209;-65
2022/11/01 05:45:24;;;;;;;1.33;1.20;;;;;;;12.20;85.33;99858.53;5109612;28;20236;-58
2022/11/01 05:47:53;;;;;;;0.60;0.60;;;;;;;12.25;85.59;99856.50;5109978;28;20216;-57
2022/11/01 05:50:19;;;;;;;0.77;0.77;;;;;;;12.33;85.48;99854.22;5109967;28;20224;-65
2022/11/01 05:52:46;;;;;;;0.90;0.90;;;;;;;12.41;85.43;99861.41;5109896;28;20240;-58
2022/11/01 05:55:13;;;;;;;2.17;1.37;;;;;;;12.46;85.17;99867.06;5110252;28;20250;-58
2022/11/01 05:57:40;;;;;;;0.70;0.70;;;;;;;12.43;85.82;99873.19;5109790;28;20677;-58
2022/11/01 06:00:08;;;;;;;2.23;0.83;;;;;;;12.63;86.08;99876.19;5109441;28;20224;-61
2022/11/01 06:02:35;;;;;;;1.20;1.00;;;;;;;12.74;85.43;99880.56;5109835;28;20198;-58
2022/11/01 06:05:03;;;;;;;1.33;1.17;;;;;;;12.94;85.11;99880.00;5109822;28;20236;-58
2022/11/01 06:07:30;;;;;;;2.03;0.90;;;;;;;13.13;84.61;99882.13;5110053;28;20193;-57
2022/11/01 06:09:57;;;;;;;0.40;0.40;;;;;;;13.30;83.95;99886.91;5109624;28;20236;-57
2022/11/01 06:12:24;;;;;;;1.33;0.90;;;;;;;13.60;83.51;99890.78;5109577;28;20241;-58
2022/11/01 06:14:51;;;;;;;1.20;0.93;;;;;;;13.93;82.80;99887.53;5109759;28;20220;-58
2022/11/01 06:17:18;;;;;;;0.67;0.67;;;;;;;14.29;80.77;99892.66;5109753;28;20225;-64
2022/11/01 06:19:45;;;;;;;1.50;1.10;;;;;;;14.64;79.54;99892.59;5109631;28;20246;-65
2022/11/01 06:22:13;;;;;;;1.40;1.30;;;;;;;15.07;79.32;99894.44;5109735;28;20193;-64
2022/11/01 06:24:40;;;;;;;1.50;1.40;;;;;;;15.51;78.95;99898.63;5109515;28;20221;-65
2022/11/01 06:27:07;;;;;;;1.20;1.10;;;;;;;16.02;76.16;99899.72;5109501;28;20588;-58
2022/11/01 06:29:34;;;;;;;2.33;1.30;;;;;;;16.48;74.52;99903.66;5109810;28;20229;-59
2022/11/01 06:32:03;;;;;;;1.27;1.13;;;;;;;16.93;72.20;99898.19;5109631;28;20232;-58
2022/11/01 06:34:30;;;;;;;2.20;1.50;;;;;;;17.35;69.64;99906.53;5109474;28;20233;-65
2022/11/01 06:36:56;;;;;;;1.63;1.53;;;;;;;17.74;68.21;99914.31;5112347;28;20246;-65
2022/11/01 06:39:24;;;;;;;1.77;1.40;;;;;;;18.13;66.36;99909.16;5113590;28;20222;-65
2022/11/01 06:41:51;;;;;;;2.43;1.83;;;;;;;18.57;65.74;99912.03;5113124;28;20701;-58
2022/11/01 06:44:18;;;;;;;1.70;1.20;;;;;;;18.99;64.59;99902.06;5113470;28;20289;-59
2022/11/01 06:46:45;;;;;;;1.43;1.23;;;;;;;19.42;61.96;99912.69;5113467;28;20701;-58
2022/11/01 06:49:12;;;;;;;2.50;1.60;;;;;;;19.77;58.78;99906.69;5113249;28;20227;-65
2022/11/01 06:51:39;;;;;;;3.00;1.50;;;;;;;20.12;58.79;99905.81;5113332;27;20237;-59
2022/11/01 06:54:05;;;;;;;2.23;1.37;;;;;;;20.46;58.06;99905.06;5112908;28;20215;-58
2022/11/01 06:56:34;;;;;;;1.87;1.60;;;;;;;20.81;56.52;99908.50;5113045;28;20209;-65
2022/11/01 06:59:00;;;;;;;1.70;1.37;;;;;;;21.04;54.81;99906.13;5113253;28;20231;-58
2022/11/01 07:01:28;;;;;;;3.57;1.40;;;;;;;21.26;53.55;99915.09;5113357;28;20204;-58
2022/11/01 07:03:54;;;;;;;2.23;1.40;;;;;;;21.28;51.99;99915.78;5112988;28;20226;-58
2022/11/01 07:06:23;;;;;;;2.60;1.70;;;;;;;20.96;52.22;99930.31;5113330;28;20198;-58
2022/11/01 07:08:50;;;;;;;1.70;1.50;;;;;;;21.12;53.03;99926.13;5112773;28;20204;-59
2022/11/01 07:11:17;;;;;;;1.90;1.50;;;;;;;21.24;52.70;99927.47;5112880;27;20722;-58
2022/11/01 07:13:45;;;;;;;1.50;1.23;;;;;;;21.15;53.26;99920.63;5112880;28;20575;-65
2022/11/01 07:16:11;;;;;;;2.80;1.70;;;;;;;21.20;51.98;99913.94;5112776;28;20229;-58
2022/11/01 07:18:38;;;;;;;2.43;1.50;;;;;;;21.60;53.08;99917.63;5112754;28;20204;-59
2022/11/01 07:21:05;;;;;;;1.60;1.33;;;;;;;21.86;51.49;99921.88;5113024;28;20266;-58
2022/11/01 07:23:32;;;;;;;1.70;1.50;;;;;;;22.06;51.43;99922.34;5112751;28;20226;-65
2022/11/01 07:25:59;;;;;;;1.60;1.50;;;;;;;22.11;49.71;99920.06;5112639;28;20219;-65
2022/11/01 07:28:26;;;;;;;2.97;1.37;;;;;;;22.30;50.30;99924.94;5112641;28;20207;-65
2022/11/01 07:30:55;;;;;;;2.13;1.60;;;;;;;22.71;49.83;99922.22;5112543;28;20231;-58
2022/11/01 07:33:22;;;;;;;2.03;1.50;;;;;;;22.73;47.14;99919.44;5112213;28;20236;-58
2022/11/01 07:35:49;;;;;;;1.43;1.10;;;;;;;22.97;48.49;99921.16;5112275;28;20236;-65
2022/11/01 07:38:16;;;;;;;1.90;1.60;;;;;;;23.04;46.74;99922.91;5112179;28;20205;-58
2022/11/01 07:40:45;;;;;;;2.17;1.40;;;;;;;22.95;47.41;99917.91;5112496;28;20305;-65
2022/11/01 07:43:12;;;;;;;1.83;1.50;;;;;;;23.35;47.09;99913.44;5112200;28;20208;-59
2022/11/01 07:45:38;;;;;;;1.50;1.40;;;;;;;23.76;46.58;99916.59;5112156;28;20224;-58
2022/11/01 07:48:09;;;;;;;1.35;1.20;;;;;;;23.62;45.27;99920.75;5111079;28;20798;-59
2022/11/01 07:50:37;;;;;;;1.52;1.40;;;;;;;23.61;46.33;99913.91;5112039;28;20244;-58
2022/11/01 07:53:06;;;;;;;2.70;1.60;;;;;;;24.06;45.51;99922.69;5111912;28;20236;-59
2022/11/01 07:55:33;;;;;;;2.30;1.60;;;;;;;24.38;44.92;99920.75;5111885;28;20227;-59
2022/11/01 07:58:00;;;;;;;2.17;1.50;;;;;;;24.47;43.19;99917.09;5112575;28;20286;-59
2022/11/01 08:00:27;;;;;;;1.33;1.20;;;;;;;24.33;43.16;99917.84;5112149;28;20224;-60
2022/11/01 08:03:00;;;;;;;1.60;1.50;;;;;;;24.46;44.67;99917.25;5111885;28;20274;-65
2022/11/01 08:05:28;;;;;;;2.42;1.60;;;;;;;24.47;42.49;99911.84;5111663;28;20228;-59
2022/11/01 08:07:55;;;;;;;3.53;2.65;;;;;;;24.82;43.37;99917.31;5111712;28;20204;-64
2022/11/01 08:10:22;;;;;;;2.03;1.60;;;;;;;25.01;42.53;99914.09;5111620;28;20225;-59
2022/11/01 08:12:49;;;;;;;2.47;1.67;;;;;;;25.45;42.96;99913.19;5111532;28;20721;-59
2022/11/01 08:15:16;;;;;;;3.75;2.17;;;;;;;25.44;42.33;99911.56;5111745;28;20751;-59
2022/11/01 08:17:43;;;;;;;2.92;2.08;;;;;;;25.69;40.53;99908.56;5111535;28;20213;-65
2022/11/01 08:20:11;;;;;;;2.00;1.42;;;;;;;25.22;42.18;99907.31;5111829;28;20221;-65
2022/11/01 08:22:40;;;;;;;1.98;1.77;;;;;;;25.51;40.96;99907.22;5111621;28;20267;-59
2022/11/01 08:25:07;;;;;;;2.20;1.48;;;;;;;25.35;40.75;99902.22;5111627;28;20256;-59
2022/11/01 08:27:35;;;;;;;2.45;1.90;;;;;;;25.78;40.81;99907.44;5111247;28;20688;-65
2022/11/01 08:30:01;;;;;;;1.58;1.48;;;;;;;25.93;41.55;99904.75;5111443;27;20213;-65
2022/11/01 08:32:28;;;;;;;3.78;1.67;;;;;;;26.10;39.92;99900.03;5111358;28;20621;-65
2022/11/01 08:34:55;;;;;;;1.70;1.60;;;;;;;26.25;40.98;99911.22;5111545;28;20582;-59
2022/11/01 08:37:22;;;;;;;1.50;1.40;;;;;;;26.63;40.77;99905.59;5111001;28;20201;-65
2022/11/01 08:39:50;;;;;;;2.35;1.80;;;;;;;26.78;39.06;99908.06;5111470;28;20699;-59
2022/11/01 08:42:17;;;;;;;3.30;2.15;;;;;;;26.93;39.18;99905.28;5111149;28;20713;-60
2022/11/01 08:44:45;;;;;;;2.85;1.73;;;;;;;26.58;38.58;99910.59;5111011;28;20223;-66
2022/11/01 08:47:12;;;;;;;2.63;1.60;;;;;;;26.41;39.97;99903.03;5111405;28;20280;-66
2022/11/01 08:49:38;;;;;;;3.13;1.48;;;;;;;26.72;39.48;99904.41;5111143;28;20221;-59
2022/11/01 08:52:06;;;;;;;4.25;1.52;;;;;;;26.61;37.77;99908.38;5111133;28;20236;-65
2022/11/01 08:54:33;;;;;;;2.55;2.00;;;;;;;26.78;38.59;99905.44;5111291;28;20228;-65
2022/11/01 08:57:02;;;;;;;2.28;1.50;;;;;;;26.46;39.51;99909.50;5111033;28;20750;-65
2022/11/01 08:59:29;;;;;;;1.98;1.55;;;;;;;26.53;38.82;99915.59;5110613;28;20312;-64
2022/11/01 09:01:55;;;;;;;2.53;1.80;;;;;;;26.30;41.09;99908.81;5110703;28;20210;-60
2022/11/01 09:04:23;;;;;;;2.67;1.42;;;;;;;26.11;39.41;99902.44;5110522;28;20752;-60
2022/11/01 09:06:49;;;;;;;5.63;2.63;;;;;;;25.71;39.52;99901.31;5110673;28;20236;-60
2022/11/01 09:09:16;;;;;;;5.45;2.70;;;;;;;25.78;39.91;99898.75;5110773;28;20697;-59
2022/11/01 09:11:43;;;;;;;1.88;1.50;;;;;;;26.13;41.33;99912.75;5110512;28;20785;-65
2022/11/01 09:14:11;;;;;;;1.90;1.50;;;;;;;26.75;38.77;99904.00;5110422;28;20311;-65
2022/11/01 09:16:38;;;;;;;2.88;2.22;;;;;;;27.04;38.96;99907.34;5110399;28;20193;-66
2022/11/01 09:19:05;;;;;;;2.33;1.67;;;;;;;27.42;38.45;99898.94;5110745;28;20244;-66
2022/11/01 09:21:31;;;;;;;1.70;1.60;;;;;;;27.49;36.62;99895.34;5110545;28;20200;-66
2022/11/01 09:23:58;;;;;;;2.42;1.38;;;;;;;27.28;38.14;99891.03;5110302;27;20494;-60
2022/11/01 09:26:27;;;;;;;3.08;1.67;;;;;;;27.63;37.49;99900.56;5110708;28;20669;-60
2022/11/01 09:28:57;;;;;;;3.22;1.88;;;;;;;27.86;37.22;99895.75;5110579;28;20653;-60
2022/11/01 09:31:25;;;;;;;1.60;1.20;;;;;;;28.21;36.35;99896.28;5110491;28;20467;-66
2022/11/01 09:33:54;;;;;;;1.85;1.50;;;;;;;27.94;36.82;99898.16;5110117;28;20205;-65
2022/11/01 09:36:22;;;;;;;2.00;1.48;;;;;;;28.07;36.21;99897.34;5110201;28;20618;-66
2022/11/01 09:38:48;;;;;;;4.43;1.92;;;;;;;28.30;34.99;99890.81;5110208;28;20201;-60
2022/11/01 09:41:26;;;;;;;1.63;1.35;;;;;;;28.34;36.54;99897.28;5110497;28;20209;-60
2022/11/01 09:43:54;;;;;;;1.48;1.27;;;;;;;28.36;36.00;99895.22;5110371;28;20204;-62
2022/11/01 09:46:25;;;;;;;2.33;1.58;;;;;;;28.38;35.50;99891.38;5110062;27;20681;-60
2022/11/01 09:48:55;;;;;;;2.40;1.88;;;;;;;28.34;37.03;99894.66;5110291;28;20205;-66
2022/11/01 09:51:24;;;;;;;3.60;1.85;;;;;;;28.57;35.87;99895.00;5110360;28;20190;-59
2022/11/01 09:53:54;;;;;;;2.00;1.63;;;;;;;28.96;34.89;99889.75;5110079;28;20244;-66
2022/11/01 09:56:25;;;;;;;1.75;1.45;;;;;;;28.82;35.07;99889.81;5110138;28;20204;-60
2022/11/01 09:59:01;;;;;;;1.63;1.38;;;;;;;28.66;35.26;99877.97;5109978;28;20205;-66
2022/11/01 10:01:41;;;;;;;1.75;1.50;;;;;;;28.35;35.35;99883.09;5110111;28;20243;-60
2022/11/01 10:04:52;;;;;;;1.80;1.60;;;;;;;28.49;34.47;99879.44;5110061;28;20235;-62
2022/11/01 10:07:27;;;;;;;2.30;1.90;;;;;;;28.31;35.35;99874.84;5109971;28;20230;-66
2022/11/01 10:10:02;;;;;;;2.30;1.67;;;;;;;27.89;35.63;99878.75;5109984;28;20653;-66
2022/11/01 10:12:45;;;;;;;2.20;1.75;;;;;;;27.60;35.75;99880.75;5114309;28;20219;-66
2022/11/01 10:15:32;;;;;;;2.22;1.55;;;;;;;27.62;36.37;99876.13;5114083;27;20223;-65
2022/11/01 10:18:10;;;;;;;2.72;1.50;;;;;;;28.05;36.21;99873.06;5114014;28;20193;-60
2022/11/01 10:20:40;;;;;;;2.15;1.73;;;;;;;27.98;35.96;99877.53;5113961;28;20659;-60
2022/11/01 10:23:08;;;;;;;3.38;2.22;;;;;;;26.70;36.49;99879.38;5113726;28;20201;-60
2022/11/01 10:25:38;;;;;;;4.45;2.10;;;;;;;26.65;37.07;99877.34;5113925;27;20982;-59
2022/11/01 10:28:11;;;;;;;1.95;1.48;;;;;;;27.04;37.03;99871.41;5113728;28;20201;-65
2022/11/01 10:30:45;;;;;;;1.88;1.67;;;;;;;27.36;37.87;99869.03;5113700;27;20731;-60
2022/11/01 10:33:27;;;;;;;3.05;2.03;;;;;;;27.97;36.15;99863.56;5113610;28;20229;-65
2022/11/01 10:35:59;;;;;;;3.03;2.08;;;;;;;28.34;35.28;99873.63;5113608;28;20228;-65
2022/11/01 10:38:35;;;;;;;1.92;1.73;;;;;;;28.35;34.96;99864.69;5113535;28;20209;-65
2022/11/01 10:41:13;;;;;;;2.45;1.77;;;;;;;28.18;35.68;99865.13;5113815;28;20633;-60
2022/11/01 10:43:44;;;;;;;2.20;1.80;;;;;;;28.44;35.44;99855.59;5113285;28;20742;-60
2022/11/01 10:46:17;;;;;;;4.03;2.40;;;;;;;28.36;34.13;99853.97;5113462;28;20204;-65
2022/11/01 10:48:46;;;;;;;2.22;1.70;;;;;;;27.97;34.88;99849.63;5113377;28;20233;-59
2022/11/01 10:51:18;;;;;;;4.30;2.00;;;;;;;28.34;35.42;99845.47;5113399;28;20432;-60
2022/11/01 10:53:49;;;;;;;3.17;1.88;;;;;;;28.41;35.24;99846.28;5113087;27;20228;-65
2022/11/01 10:56:21;;;;;;;2.47;1.90;;;;;;;28.04;35.54;99846.97;5113294;28;20258;-65
2022/11/01 10:58:55;;;;;;;2.58;1.80;;;;;;;28.53;35.04;99843.00;5113285;28;20241;-60
2022/11/01 11:01:26;;;;;;;3.55;1.90;;;;;;;28.46;34.59;99843.03;5113533;27;20189;-65
2022/11/01 11:03:55;;;;;;;2.85;1.73;;;;;;;28.16;35.15;99837.47;5112960;28;20247;-65
2022/11/01 11:06:24;;;;;;;2.33;1.85;;;;;;;27.72;35.24;99836.28;5112964;28;20673;-60
2022/11/01 11:08:54;;;;;;;4.88;2.08;;;;;;;27.79;35.35;99834.50;5112982;28;20229;-60
2022/11/01 11:11:30;;;;;;;3.08;2.10;;;;;;;27.88;35.37;99829.84;5113120;28;20201;-60
2022/11/01 11:14:00;;;;;;;3.08;1.75;;;;;;;27.88;34.79;99835.09;5112842;28;20240;-60
2022/11/01 11:16:32;;;;;;;2.75;1.80;;;;;;;27.73;34.90;99828.22;5112722;28;20201;-65
2022/11/01 11:19:14;;;;;;;3.90;1.77;;;;;;;27.53;35.22;99827.44;5112906;28;20224;-65
2022/11/01 11:21:43;;;;;;;3.03;1.60;;;;;;;27.28;36.31;99825.41;5112408;27;20202;-65
2022/11/01 11:24:18;;;;;;;2.05;1.85;;;;;;;27.41;35.59;99826.44;5112692;28;20705;-60
2022/11/01 11:26:47;;;;;;;4.35;1.90;;;;;;;27.21;36.09;99824.59;5112716;28;20197;-59
2022/11/01 11:29:47;;;;;;;3.40;1.75;;;;;;;27.53;35.68;99827.44;5112878;28;20311;-59
2022/11/01 11:32:17;;;;;;;1.75;1.65;;;;;;;27.46;35.28;99819.56;5109522;28;20232;-65
2022/11/01 11:34:51;;;;;;;3.90;2.00;;;;;;;27.27;35.97;99815.91;5112583;27;20270;-65
2022/11/01 11:37:22;;;;;;;2.15;1.92;;;;;;;27.26;35.71;99818.75;5112303;28;20229;-59
2022/11/01 11:40:18;;;;;;;3.05;1.77;;;;;;;27.14;35.63;99818.53;5112171;28;20731;-61
2022/11/01 11:42:47;;;;;;;2.88;1.65;;;;;;;27.27;35.94;99807.25;5112618;28;20198;-65
2022/11/01 11:45:21;;;;;;;2.80;1.70;;;;;;;26.78;35.68;99803.91;5112837;28;20237;-60
2022/11/01 11:47:48;;;;;;;2.30;1.42;;;;;;;26.79;35.93;99802.94;5112373;27;20206;-65
2022/11/01 11:50:34;;;;;;;3.45;2.30;;;;;;;27.21;36.44;99810.66;5112485;28;20528;-65